Time;durP1;ratioP1;P1;durP2;ratioP2;P2;SDS_P1;SDS_P2;PMS_P1;PMS_P2;Temp;Humidity;BMP_temperature;BMP_pressure;BME280_temperature;BME280_humidity;BME280_pressure;Samples;Min_cycle;Max_cycle;Signal;HPM_P1;HPM_P2
2023/03/15 00:02:12;;;;;;;1999.90;999.90;;;;;;;8.57;100.00;96584.97;5098008;28;20020;-83
2023/03/15 00:04:38;;;;;;;1999.90;999.90;;;;;;;8.59;100.00;96588.16;5097897;28;20032;-83
2023/03/15 00:07:03;;;;;;;1999.90;999.90;;;;;;;8.58;100.00;96597.47;5093356;28;20044;-79
2023/03/15 00:09:28;;;;;;;1999.90;999.90;;;;;;;8.53;100.00;96601.13;5094746;28;20463;-82
2023/03/15 00:11:54;;;;;;;1999.90;999.90;;;;;;;8.47;100.00;96596.13;5094122;28;20024;-82
2023/03/15 00:14:20;;;;;;;1999.90;999.90;;;;;;;8.40;100.00;96602.03;5092544;28;20687;-83
2023/03/15 00:16:45;;;;;;;1999.90;999.90;;;;;;;8.39;100.00;96605.91;5093864;28;20028;-85
2023/03/15 00:19:11;;;;;;;1999.90;999.90;;;;;;;8.30;100.00;96613.22;5092833;28;20016;-79
2023/03/15 00:21:38;;;;;;;1999.90;999.90;;;;;;;8.29;100.00;96598.00;5093502;28;20031;-81
2023/03/15 00:24:04;;;;;;;1999.90;999.90;;;;;;;8.31;100.00;96597.66;5089909;28;20025;-80
2023/03/15 00:26:29;;;;;;;1999.90;999.90;;;;;;;8.42;100.00;96594.38;5073194;28;20012;-84
2023/03/15 00:28:55;;;;;;;1999.90;999.90;;;;;;;8.44;100.00;96619.38;5073322;28;20064;-82
2023/03/15 00:31:22;;;;;;;1999.90;999.90;;;;;;;8.41;100.00;96611.84;5073735;28;20159;-83
2023/03/15 00:33:52;;;;;;;1999.90;999.90;;;;;;;8.48;100.00;96611.38;5073526;28;20024;-82
2023/03/15 00:36:18;;;;;;;1999.90;999.90;;;;;;;8.40;100.00;96610.22;5073826;28;20046;-82
2023/03/15 00:38:43;;;;;;;1999.90;999.90;;;;;;;8.40;100.00;96612.94;5074216;28;20052;-81
2023/03/15 00:41:12;;;;;;;1999.90;999.90;;;;;;;8.44;100.00;96602.22;5074059;28;20152;-82
2023/03/15 00:43:37;;;;;;;1999.90;999.90;;;;;;;8.42;100.00;96618.09;5073853;28;20028;-84
2023/03/15 00:46:04;;;;;;;1999.90;999.90;;;;;;;8.41;100.00;96616.47;5073977;28;20043;-85
2023/03/15 00:48:29;;;;;;;1999.90;999.90;;;;;;;8.30;100.00;96607.75;5073858;28;20474;-87
2023/03/15 00:51:22;;;;;;;1999.90;999.90;;;;;;;8.37;100.00;96621.75;5072277;28;20043;-78
2023/03/15 00:53:49;;;;;;;1999.90;999.90;;;;;;;8.29;100.00;96619.78;5070960;28;20040;-83
2023/03/15 00:56:20;;;;;;;1999.90;999.90;;;;;;;8.21;100.00;96620.50;5072723;28;20031;-79
2023/03/15 00:58:46;;;;;;;1999.90;999.90;;;;;;;8.20;100.00;96616.19;5072771;28;20397;-83
2023/03/15 01:01:15;;;;;;;1999.90;999.90;;;;;;;8.28;100.00;96626.34;5074079;28;20040;-77
2023/03/15 01:03:41;;;;;;;1999.90;999.90;;;;;;;8.36;100.00;96622.06;5074282;28;20112;-78
2023/03/15 01:06:32;;;;;;;1999.90;999.90;;;;;;;8.37;100.00;96624.47;5074070;28;20465;-81
2023/03/15 01:08:58;;;;;;;1999.90;999.90;;;;;;;8.33;100.00;96619.97;5071557;28;20044;-81
2023/03/15 01:11:26;;;;;;;1999.90;999.90;;;;;;;8.32;100.00;96621.88;5072552;28;20036;-80
2023/03/15 01:13:53;;;;;;;1999.90;999.90;;;;;;;8.32;100.00;96631.97;5072356;28;20408;-83
2023/03/15 01:16:19;;;;;;;1999.90;999.90;;;;;;;8.26;100.00;96614.94;5072295;28;20406;-80
2023/03/15 01:18:44;;;;;;;1999.90;999.90;;;;;;;8.19;100.00;96619.22;5072634;28;20025;-80
2023/03/15 01:21:12;;;;;;;1999.90;999.90;;;;;;;8.16;100.00;96628.81;5072391;28;20495;-80
2023/03/15 01:23:38;;;;;;;1999.90;999.90;;;;;;;8.16;100.00;96634.28;5072190;28;20033;-77
2023/03/15 01:26:06;;;;;;;1999.90;999.90;;;;;;;8.30;100.00;96643.19;5072300;28;20055;-80
2023/03/15 01:28:32;;;;;;;1999.90;999.90;;;;;;;8.32;100.00;96637.44;5072617;28;20080;-80
2023/03/15 01:30:57;;;;;;;1999.90;999.90;;;;;;;8.31;100.00;96652.16;5071307;28;20031;-78
2023/03/15 01:33:23;;;;;;;1999.90;999.90;;;;;;;8.21;100.00;96636.84;5073013;28;20032;-84
2023/03/15 01:35:57;;;;;;;1999.90;999.90;;;;;;;8.25;100.00;96642.47;5075207;28;20031;-86
2023/03/15 01:38:23;;;;;;;1999.90;999.90;;;;;;;8.20;100.00;96646.16;5074409;28;20029;-82
2023/03/15 01:40:48;;;;;;;1999.90;999.90;;;;;;;8.27;100.00;96646.50;5073844;28;20500;-86
2023/03/15 01:43:22;;;;;;;1999.90;999.90;;;;;;;8.33;100.00;96650.72;5073430;28;20111;-80
2023/03/15 01:46:22;;;;;;;1999.90;999.90;;;;;;;8.36;100.00;96652.84;5073009;28;20159;-84
2023/03/15 01:49:11;;;;;;;1999.90;999.90;;;;;;;8.27;100.00;96651.94;5072079;28;20028;-79
2023/03/15 01:51:48;;;;;;;1999.90;999.90;;;;;;;8.24;100.00;96652.56;5072058;28;20052;-80
2023/03/15 01:54:20;;;;;;;1999.90;999.90;;;;;;;8.28;100.00;96653.59;5070506;28;20040;-81
2023/03/15 01:57:03;;;;;;;1999.90;999.90;;;;;;;8.20;100.00;96651.59;5072423;28;20025;-82
2023/03/15 01:59:33;;;;;;;1999.90;999.90;;;;;;;8.23;100.00;96656.44;5072260;28;20066;-84
2023/03/15 02:01:59;;;;;;;1999.90;999.90;;;;;;;8.23;100.00;96636.56;5071210;28;20128;-80
2023/03/15 02:04:32;;;;;;;1999.90;999.90;;;;;;;8.12;100.00;96649.63;5071699;28;20405;-81
2023/03/15 02:07:01;;;;;;;1999.90;999.90;;;;;;;8.12;100.00;96655.06;5072703;28;20150;-79
2023/03/15 02:09:34;;;;;;;1999.90;999.90;;;;;;;8.10;100.00;96657.31;5070978;28;20032;-82
2023/03/15 02:12:00;;;;;;;1999.90;999.90;;;;;;;8.22;100.00;96664.91;5075777;28;20033;-81
2023/03/15 02:14:27;;;;;;;1999.90;999.90;;;;;;;8.20;100.00;96659.78;5072000;28;20523;-81
2023/03/15 02:16:52;;;;;;;1999.90;999.90;;;;;;;8.33;100.00;96677.97;5070680;28;20035;-81
2023/03/15 02:19:36;;;;;;;1999.90;999.90;;;;;;;8.33;100.00;96675.25;5071326;28;20021;-81
2023/03/15 02:22:31;;;;;;;1999.90;999.90;;;;;;;8.30;100.00;96677.81;5071588;28;20079;-82
2023/03/15 02:25:13;;;;;;;1999.90;999.90;;;;;;;8.33;100.00;96690.81;5070857;28;20513;-78
2023/03/15 02:27:39;;;;;;;1999.90;999.90;;;;;;;8.24;100.00;96685.25;5071277;28;20530;-77
2023/03/15 02:30:05;;;;;;;1999.90;999.90;;;;;;;8.21;100.00;96680.44;5071402;28;20056;-80
2023/03/15 02:32:31;;;;;;;1999.90;999.90;;;;;;;8.20;100.00;96681.56;5070837;28;20043;-77
2023/03/15 02:34:57;;;;;;;1999.90;999.90;;;;;;;8.25;100.00;96688.78;5070885;28;20021;-80
2023/03/15 02:37:22;;;;;;;1999.90;999.90;;;;;;;8.17;100.00;96679.47;5070366;28;20073;-79
2023/03/15 02:39:47;;;;;;;1999.90;999.90;;;;;;;8.22;100.00;96692.94;5070452;28;20058;-77
2023/03/15 02:42:13;;;;;;;1999.90;999.90;;;;;;;8.23;100.00;96700.00;5072736;28;20025;-80
2023/03/15 02:44:41;;;;;;;1999.90;999.90;;;;;;;8.24;100.00;96701.59;5076387;28;20027;-83
2023/03/15 02:47:17;;;;;;;1999.90;999.90;;;;;;;8.16;100.00;96696.91;5076655;28;20092;-82
2023/03/15 02:49:47;;;;;;;1999.90;999.90;;;;;;;8.17;100.00;96706.69;5076934;28;20035;-85
2023/03/15 02:52:13;;;;;;;1999.90;999.90;;;;;;;8.13;100.00;96710.34;5076816;28;20047;-84
2023/03/15 02:54:42;;;;;;;1999.90;999.90;;;;;;;8.12;100.00;96706.81;5076339;28;20024;-86
2023/03/15 02:57:08;;;;;;;1999.90;999.90;;;;;;;8.29;100.00;96706.16;5076151;28;20020;-86
2023/03/15 02:59:34;;;;;;;1999.90;999.90;;;;;;;8.20;100.00;96697.91;5077798;28;20028;-80
2023/03/15 03:01:59;;;;;;;1999.90;999.90;;;;;;;8.24;100.00;96717.94;5077368;28;20025;-89
2023/03/15 03:04:25;;;;;;;1999.90;999.90;;;;;;;8.17;100.00;96720.31;5077020;28;20067;-84
2023/03/15 03:06:50;;;;;;;1999.90;999.90;;;;;;;8.19;100.00;96720.00;5074295;28;20389;-80
2023/03/15 03:09:15;;;;;;;1999.90;999.90;;;;;;;8.21;100.00;96724.00;5084662;28;20045;-75
2023/03/15 03:11:41;;;;;;;1999.90;999.90;;;;;;;8.17;100.00;96733.13;5088203;28;20032;-75
2023/03/15 03:14:06;;;;;;;1999.90;999.90;;;;;;;8.02;100.00;96728.84;5083806;28;20044;-76
2023/03/15 03:16:31;;;;;;;1999.90;999.90;;;;;;;8.01;100.00;96725.34;5072798;28;20056;-74
2023/03/15 03:18:57;;;;;;;1999.90;999.90;;;;;;;8.11;100.00;96737.91;5086313;28;20032;-77
2023/03/15 03:21:22;;;;;;;1999.90;999.90;;;;;;;8.15;100.00;96741.59;5092966;28;20024;-75
2023/03/15 03:23:48;;;;;;;1999.90;999.90;;;;;;;8.04;100.00;96740.25;5092888;28;20028;-74
2023/03/15 03:26:17;;;;;;;1999.90;999.90;;;;;;;8.06;100.00;96748.91;5093184;28;20024;-77
2023/03/15 03:28:45;;;;;;;1999.90;999.90;;;;;;;7.98;100.00;96758.63;5092529;28;20020;-74
2023/03/15 03:31:22;;;;;;;1999.90;999.90;;;;;;;7.95;100.00;96761.16;5076825;28;20078;-74
2023/03/15 03:33:48;;;;;;;1999.90;999.90;;;;;;;8.02;100.00;96761.50;5072330;28;20465;-76
2023/03/15 03:36:13;;;;;;;1999.90;999.90;;;;;;;7.99;100.00;96771.09;5071501;28;20047;-74
2023/03/15 03:38:41;;;;;;;1999.90;999.90;;;;;;;8.05;100.00;96777.22;5089590;28;20020;-76
2023/03/15 03:41:08;;;;;;;1999.90;999.90;;;;;;;8.09;100.00;96786.41;5093296;28;20046;-74
2023/03/15 03:43:33;;;;;;;1999.90;999.90;;;;;;;8.12;100.00;96790.41;5087758;28;20481;-74
2023/03/15 03:45:59;;;;;;;1999.90;999.90;;;;;;;8.02;100.00;96791.47;5083657;28;20025;-75
2023/03/15 03:48:24;;;;;;;1999.90;999.90;;;;;;;8.10;100.00;96798.91;5073720;28;20024;-74
2023/03/15 03:50:49;;;;;;;1999.90;999.90;;;;;;;8.13;100.00;96805.66;5088882;28;20107;-74
2023/03/15 03:53:15;;;;;;;1999.90;999.90;;;;;;;8.08;100.00;96809.31;5090992;28;20052;-75
2023/03/15 03:55:41;;;;;;;1999.90;999.90;;;;;;;8.17;100.00;96823.81;5092296;28;20020;-75
2023/03/15 03:58:07;;;;;;;1999.90;999.90;;;;;;;8.12;100.00;96825.81;5092692;28;20024;-74
2023/03/15 04:00:33;;;;;;;1999.90;999.90;;;;;;;8.03;100.00;96825.75;5092587;28;20036;-75
2023/03/15 04:02:58;;;;;;;1999.90;999.90;;;;;;;7.87;100.00;96829.91;5088960;28;20020;-76
2023/03/15 04:05:24;;;;;;;1999.90;999.90;;;;;;;7.85;100.00;96824.00;5081859;28;20028;-74
2023/03/15 04:07:49;;;;;;;1999.90;999.90;;;;;;;7.93;100.00;96837.69;5093230;28;20116;-75
2023/03/15 04:10:15;;;;;;;1999.90;999.90;;;;;;;7.87;100.00;96833.44;5075663;28;20020;-74
2023/03/15 04:12:44;;;;;;;1999.90;999.90;;;;;;;7.83;100.00;96831.66;5072175;28;20382;-74
2023/03/15 04:15:10;;;;;;;1999.90;999.90;;;;;;;7.91;100.00;96839.09;5071908;28;20098;-76
2023/03/15 04:17:38;;;;;;;1999.90;999.90;;;;;;;7.95;100.00;96857.25;5072475;28;20028;-74
2023/03/15 04:20:10;;;;;;;1999.90;999.90;;;;;;;8.02;100.00;96856.81;5076132;28;20025;-77
2023/03/15 04:22:36;;;;;;;1999.90;999.90;;;;;;;8.08;100.00;96880.13;5091431;28;20027;-74
2023/03/15 04:25:01;;;;;;;1999.90;999.90;;;;;;;8.03;100.00;96880.22;5091566;28;20165;-74
2023/03/15 04:27:28;;;;;;;1999.90;999.90;;;;;;;7.88;100.00;96878.63;5091445;28;20453;-75
2023/03/15 04:29:54;;;;;;;1999.90;999.90;;;;;;;7.88;100.00;96881.34;5091452;28;20098;-75
2023/03/15 04:32:19;;;;;;;1999.90;999.90;;;;;;;7.92;100.00;96889.72;5091655;28;20024;-75
2023/03/15 04:34:50;;;;;;;1999.90;999.90;;;;;;;7.83;100.00;96886.09;5091640;28;20074;-74
2023/03/15 04:37:18;;;;;;;1999.90;999.90;;;;;;;7.88;100.00;96892.25;5091997;28;20024;-74
2023/03/15 04:39:43;;;;;;;1999.90;999.90;;;;;;;7.87;100.00;96892.53;5091631;28;20152;-74
2023/03/15 04:42:09;;;;;;;1999.90;999.90;;;;;;;7.89;100.00;96898.50;5091364;28;20115;-75
2023/03/15 04:44:35;;;;;;;1999.90;999.90;;;;;;;7.85;100.00;96901.03;5091312;28;20063;-74
2023/03/15 04:47:01;;;;;;;1999.90;999.90;;;;;;;7.92;100.00;96916.94;5091329;28;20574;-76
2023/03/15 04:49:26;;;;;;;1999.90;999.90;;;;;;;7.95;100.00;96922.59;5090964;28;20048;-76
2023/03/15 04:51:51;;;;;;;1999.90;999.90;;;;;;;7.81;100.00;96916.34;5090872;28;20107;-74
2023/03/15 04:54:17;;;;;;;1999.90;999.90;;;;;;;7.71;100.00;96937.50;5089709;28;20023;-74
2023/03/15 04:56:42;;;;;;;1999.90;999.90;;;;;;;7.86;100.00;96939.94;5091116;28;20027;-74
2023/03/15 04:59:09;;;;;;;1999.90;999.90;;;;;;;7.87;100.00;96949.69;5072731;28;20397;-74
2023/03/15 05:01:36;;;;;;;1999.90;999.90;;;;;;;7.89;100.00;96950.22;5070695;28;20024;-76
2023/03/15 05:04:01;;;;;;;1999.90;999.90;;;;;;;7.70;100.00;96946.78;5074363;28;20020;-74
2023/03/15 05:06:27;;;;;;;1999.90;999.90;;;;;;;7.65;100.00;96949.59;5071096;28;20381;-74
2023/03/15 05:08:53;;;;;;;1999.90;999.90;;;;;;;7.72;100.00;96950.00;5070598;28;20560;-75
2023/03/15 05:11:19;;;;;;;1999.90;999.90;;;;;;;7.70;100.00;96953.03;5070374;28;20032;-74
2023/03/15 05:13:45;;;;;;;1999.90;999.90;;;;;;;7.64;100.00;96954.25;5070315;28;20064;-74
2023/03/15 05:16:10;;;;;;;1999.90;999.90;;;;;;;7.59;100.00;96956.25;5070849;28;20554;-73
2023/03/15 05:18:35;;;;;;;1999.90;999.90;;;;;;;7.45;100.00;96951.59;5070334;28;20099;-74
2023/03/15 05:21:01;;;;;;;1999.90;999.90;;;;;;;7.38;100.00;96967.50;5070528;28;20052;-74
2023/03/15 05:23:26;;;;;;;1999.90;999.90;;;;;;;7.41;100.00;96966.91;5070394;28;20491;-73
2023/03/15 05:25:53;;;;;;;1999.90;999.90;;;;;;;7.43;100.00;96970.13;5070418;28;20020;-74
2023/03/15 05:28:20;;;;;;;1999.90;999.90;;;;;;;7.48;100.00;96966.53;5101562;28;20043;-75
2023/03/15 05:30:46;;;;;;;1999.90;999.90;;;;;;;7.57;100.00;96974.78;5090632;28;20027;-75
2023/03/15 05:33:12;;;;;;;1999.90;999.90;;;;;;;7.64;100.00;96972.50;5093274;28;20034;-75
2023/03/15 05:35:38;;;;;;;1999.90;999.90;;;;;;;7.48;100.00;96975.50;5090653;28;20396;-74
2023/03/15 05:38:04;;;;;;;1999.90;999.90;;;;;;;7.56;100.00;96976.69;5090740;28;20028;-74
2023/03/15 05:40:31;;;;;;;1999.90;999.90;;;;;;;7.59;100.00;96967.94;5090750;28;20028;-75
2023/03/15 05:42:58;;;;;;;1999.90;999.90;;;;;;;7.61;100.00;96975.81;5090457;28;20032;-73
2023/03/15 05:45:23;;;;;;;1999.90;999.90;;;;;;;7.57;100.00;96977.50;5090939;28;20473;-74
2023/03/15 05:47:48;;;;;;;1999.90;999.90;;;;;;;7.69;100.00;96986.00;5091285;28;20046;-74
2023/03/15 05:50:14;;;;;;;1999.90;999.90;;;;;;;7.60;100.00;96985.06;5092630;28;20123;-80
2023/03/15 05:52:39;;;;;;;1999.90;999.90;;;;;;;7.48;100.00;96985.56;5091899;28;20028;-74
2023/03/15 05:55:05;;;;;;;1999.90;999.90;;;;;;;7.46;100.00;96988.56;5091910;28;20063;-75
2023/03/15 05:57:30;;;;;;;1999.90;999.90;;;;;;;7.39;100.00;96984.63;5090323;28;20024;-75
2023/03/15 05:59:56;;;;;;;1999.90;999.90;;;;;;;7.39;100.00;96996.31;5090168;28;20068;-76
2023/03/15 06:02:21;;;;;;;1999.90;999.90;;;;;;;7.41;100.00;97002.28;5090180;28;20031;-74
2023/03/15 06:04:46;;;;;;;1999.90;999.90;;;;;;;7.28;100.00;97005.75;5091186;28;20043;-75
2023/03/15 06:07:12;;;;;;;1999.90;999.90;;;;;;;7.35;100.00;97011.63;5091280;28;20115;-75
2023/03/15 06:09:37;;;;;;;1999.90;999.90;;;;;;;7.39;100.00;97012.63;5090630;28;20492;-75
2023/03/15 06:12:03;;;;;;;1999.90;999.90;;;;;;;7.44;100.00;97006.31;5090053;28;20090;-76
2023/03/15 06:14:29;;;;;;;1999.90;999.90;;;;;;;7.51;100.00;97012.97;5089966;28;20069;-75
2023/03/15 06:16:54;;;;;;;1999.90;999.90;;;;;;;7.41;100.00;97026.75;5091548;28;20102;-75
2023/03/15 06:19:20;;;;;;;1999.90;999.90;;;;;;;7.34;100.00;97022.78;5094185;28;20341;-75
2023/03/15 06:21:46;;;;;;;1999.90;999.90;;;;;;;7.31;100.00;97031.53;5101015;28;20081;-76
2023/03/15 06:24:11;;;;;;;1999.90;999.90;;;;;;;7.35;100.00;97033.38;5114720;28;20024;-75
2023/03/15 06:26:37;;;;;;;1999.90;999.90;;;;;;;7.33;100.00;97035.56;5114871;28;20579;-76
2023/03/15 06:29:02;;;;;;;1999.90;999.90;;;;;;;7.32;100.00;97035.88;5117342;28;20030;-74
2023/03/15 06:31:28;;;;;;;1999.90;999.90;;;;;;;7.37;100.00;97036.59;5114131;28;20027;-74
2023/03/15 06:33:53;;;;;;;1999.90;999.90;;;;;;;7.38;100.00;97032.78;5113995;28;20130;-75
2023/03/15 06:36:18;;;;;;;1999.90;999.90;;;;;;;7.34;100.00;97041.81;5114263;28;20028;-75
2023/03/15 06:38:44;;;;;;;1999.90;999.90;;;;;;;7.32;100.00;97050.31;5113721;28;20495;-77
2023/03/15 06:41:11;;;;;;;1999.90;999.90;;;;;;;7.34;100.00;97048.09;5112926;28;20027;-76
2023/03/15 06:43:37;;;;;;;1999.90;999.90;;;;;;;7.25;100.00;97049.88;5113751;28;20069;-75
2023/03/15 06:46:02;;;;;;;1999.90;999.90;;;;;;;7.18;100.00;97043.97;5114415;28;20024;-80
2023/03/15 06:48:28;;;;;;;1999.90;999.90;;;;;;;7.19;100.00;97047.50;5114573;28;20030;-77
2023/03/15 06:50:54;;;;;;;1999.90;999.90;;;;;;;7.25;100.00;97062.66;5115703;28;20047;-76
2023/03/15 06:53:19;;;;;;;1999.90;999.90;;;;;;;7.30;100.00;97065.31;5098209;28;20156;-77
2023/03/15 06:55:46;;;;;;;1999.90;999.90;;;;;;;7.33;100.00;97079.09;5093739;28;20040;-79
2023/03/15 06:58:12;;;;;;;1999.90;999.90;;;;;;;7.40;100.00;97079.53;5082647;28;20361;-77
2023/03/15 07:00:38;;;;;;;1999.90;999.90;;;;;;;7.54;100.00;97077.69;5073543;28;20032;-81
2023/03/15 07:03:04;;;;;;;1999.90;999.90;;;;;;;7.70;100.00;97094.56;5073860;28;20082;-77
2023/03/15 07:05:30;;;;;;;1999.90;999.90;;;;;;;7.74;100.00;97094.75;5073976;28;20028;-77
2023/03/15 07:07:56;;;;;;;1999.90;999.90;;;;;;;7.74;100.00;97097.47;5080848;28;20036;-84
2023/03/15 07:10:21;;;;;;;1999.90;999.90;;;;;;;7.70;100.00;97105.47;5079250;28;20021;-79
2023/03/15 07:12:46;;;;;;;1999.90;999.90;;;;;;;7.57;100.00;97111.66;5074110;28;20534;-79
2023/03/15 07:15:12;;;;;;;1999.90;999.90;;;;;;;7.36;100.00;97113.09;5072738;28;20044;-78
2023/03/15 07:17:37;;;;;;;1999.90;999.90;;;;;;;7.38;100.00;97119.03;5096401;28;20016;-86
2023/03/15 07:20:04;;;;;;;1999.90;999.90;;;;;;;7.46;100.00;97130.03;5100233;28;20077;-83
2023/03/15 07:22:31;;;;;;;1999.90;999.90;;;;;;;7.34;100.00;97124.25;5098993;28;20048;-85
2023/03/15 07:24:56;;;;;;;1999.90;999.90;;;;;;;7.44;100.00;97140.41;5096554;28;20036;-85
2023/03/15 07:27:22;;;;;;;1999.90;999.90;;;;;;;7.40;100.00;97144.81;5095898;28;20020;-86
2023/03/15 07:29:49;;;;;;;1999.90;999.90;;;;;;;7.47;100.00;97148.00;5094929;28;20079;-85
2023/03/15 07:32:15;;;;;;;1999.90;999.90;;;;;;;7.58;100.00;97147.84;5094405;28;20102;-84
2023/03/15 07:34:43;;;;;;;1999.90;999.90;;;;;;;7.76;100.00;97149.72;5095812;28;20028;-89
2023/03/15 07:37:09;;;;;;;1999.90;999.90;;;;;;;7.91;100.00;97160.34;5097072;28;20075;-91
2023/03/15 07:39:35;;;;;;;1999.90;999.90;;;;;;;7.97;100.00;97162.69;5096738;28;20062;-88
2023/03/15 07:42:00;;;;;;;1999.90;999.90;;;;;;;7.95;100.00;97161.38;5095864;28;20431;-83
2023/03/15 07:44:25;;;;;;;1999.90;999.90;;;;;;;7.97;100.00;97167.34;5096665;28;20054;-84
2023/03/15 07:46:51;;;;;;;1999.90;999.90;;;;;;;8.09;100.00;97173.13;5096116;28;20541;-77
2023/03/15 07:49:17;;;;;;;1999.90;999.90;;;;;;;8.18;100.00;97175.94;5097372;28;20384;-83
2023/03/15 07:51:42;;;;;;;1999.90;999.90;;;;;;;8.51;100.00;97183.03;5095949;28;20028;-82
2023/03/15 07:54:08;;;;;;;1999.90;999.90;;;;;;;8.79;100.00;97186.59;5095997;28;20035;-83
2023/03/15 07:56:33;;;;;;;1999.90;999.90;;;;;;;8.97;100.00;97193.84;5095661;28;20071;-85
2023/03/15 07:58:59;;;;;;;1999.90;999.90;;;;;;;8.84;100.00;97200.09;5096447;28;20095;-89
2023/03/15 08:01:24;;;;;;;1999.90;999.90;;;;;;;8.74;100.00;97197.59;5098101;28;20020;-89
2023/03/15 08:03:49;;;;;;;1999.90;999.90;;;;;;;8.77;100.00;97203.22;5096443;28;20419;-86
2023/03/15 08:06:15;;;;;;;1999.90;999.90;;;;;;;8.71;100.00;97214.56;5095270;28;20044;-81
2023/03/15 08:08:40;;;;;;;1999.90;999.90;;;;;;;8.58;100.00;97197.88;5096037;28;20028;-84
2023/03/15 08:11:06;;;;;;;1999.90;999.90;;;;;;;8.40;100.00;97201.47;5094492;28;20016;-79
2023/03/15 08:13:31;;;;;;;1999.90;999.90;;;;;;;8.18;100.00;97205.91;5093708;28;20508;-85
2023/03/15 08:15:57;;;;;;;1999.90;999.90;;;;;;;8.25;100.00;97209.06;5093318;28;20028;-86
2023/03/15 08:18:22;;;;;;;1999.90;999.90;;;;;;;8.46;100.00;97219.34;5091892;28;20492;-81
2023/03/15 08:20:48;;;;;;;1999.90;999.90;;;;;;;8.36;100.00;97221.47;5094346;28;20047;-80
2023/03/15 08:23:15;;;;;;;1999.90;999.90;;;;;;;8.52;100.00;97215.41;5092659;28;20116;-78
2023/03/15 08:25:41;;;;;;;1999.90;999.90;;;;;;;8.69;100.00;97208.59;5093611;28;20020;-79
2023/03/15 08:28:07;;;;;;;1999.90;999.90;;;;;;;8.80;100.00;97196.38;5093622;28;20032;-84
2023/03/15 08:30:32;;;;;;;1999.90;999.90;;;;;;;9.04;100.00;97203.25;5093409;28;20198;-80
2023/03/15 08:32:57;;;;;;;1999.90;999.90;;;;;;;9.29;100.00;97198.38;5093750;28;20081;-83
2023/03/15 08:35:23;;;;;;;1999.90;999.90;;;;;;;9.71;99.66;97203.41;5095876;28;20028;-83
2023/03/15 08:37:51;;;;;;;1999.90;999.90;;;;;;;9.25;96.53;97200.09;5095159;28;20032;-82
2023/03/15 08:40:24;;;;;;;1999.90;999.90;;;;;;;9.19;96.89;97201.31;5092995;28;20103;-79
2023/03/15 08:42:51;;;;;;;1999.90;999.90;;;;;;;8.96;97.38;97205.84;5093933;28;20028;-85
2023/03/15 08:45:16;;;;;;;1999.90;999.90;;;;;;;8.97;97.39;97210.22;5094221;28;20031;-80
2023/03/15 08:47:42;;;;;;;1999.90;999.90;;;;;;;8.88;95.77;97212.84;5095100;28;20028;-76
2023/03/15 08:50:10;;;;;;;1999.90;999.90;;;;;;;9.26;95.44;97210.72;5095181;28;20093;-87
2023/03/15 08:52:35;;;;;;;1999.90;999.90;;;;;;;9.12;95.15;97218.09;5094054;28;20043;-83
2023/03/15 08:55:03;;;;;;;1999.90;999.90;;;;;;;9.29;95.61;97221.00;5093363;28;20027;-81
2023/03/15 08:57:31;;;;;;;1999.90;999.90;;;;;;;9.49;96.64;97222.50;5093130;28;20077;-79
2023/03/15 09:00:00;;;;;;;1999.90;999.90;;;;;;;9.38;93.81;97226.56;5093620;28;20415;-85
2023/03/15 09:02:28;;;;;;;1999.90;999.90;;;;;;;9.61;94.18;97225.50;5094439;28;20031;-85
2023/03/15 09:04:54;;;;;;;1999.90;999.90;;;;;;;9.52;95.22;97225.41;5093978;28;20138;-88
2023/03/15 09:07:20;;;;;;;1999.90;999.90;;;;;;;9.58;90.86;97234.31;5094560;28;20066;-86
2023/03/15 09:09:47;;;;;;;1999.90;999.90;;;;;;;9.74;90.93;97240.25;5095409;28;20020;-85
2023/03/15 09:12:14;;;;;;;1999.90;999.90;;;;;;;9.99;87.13;97243.19;5096344;28;20032;-82
2023/03/15 09:14:40;;;;;;;1999.90;999.90;;;;;;;10.33;86.00;97231.75;5095410;28;20047;-83
2023/03/15 09:17:05;;;;;;;1999.90;999.90;;;;;;;10.81;87.78;97253.75;5095929;28;20036;-82
2023/03/15 09:19:31;;;;;;;1999.90;999.90;;;;;;;10.93;84.19;97250.44;5095983;28;20049;-83
2023/03/15 09:21:57;;;;;;;1999.90;999.90;;;;;;;10.97;84.18;97254.16;5103295;28;20578;-83
2023/03/15 09:24:23;;;;;;;1999.90;999.90;;;;;;;10.97;83.49;97251.41;5101861;28;20019;-83
2023/03/15 09:26:48;;;;;;;1999.90;999.90;;;;;;;10.63;82.51;97252.84;5097682;28;20548;-85
2023/03/15 09:29:13;;;;;;;1999.90;999.90;;;;;;;10.82;82.22;97247.16;5098501;28;20465;-86
2023/03/15 09:31:39;;;;;;;1999.90;999.90;;;;;;;10.93;80.42;97250.44;5095389;28;20060;-83
2023/03/15 09:34:04;;;;;;;1999.90;999.90;;;;;;;11.29;77.83;97251.06;5097736;28;20031;-90
2023/03/15 09:36:31;;;;;;;1999.90;999.90;;;;;;;11.23;76.84;97266.03;5099142;28;20101;-89
2023/03/15 09:38:56;;;;;;;1999.90;999.90;;;;;;;11.54;79.13;97260.47;5098630;28;20030;-87
2023/03/15 09:41:33;;;;;;;1999.90;999.90;;;;;;;11.65;75.17;97259.06;5100261;28;20059;-87
2023/03/15 09:44:08;;;;;;;1999.90;999.90;;;;;;;11.19;78.89;97249.41;5097879;28;20484;-88
2023/03/15 09:46:45;;;;;;;;;;;;;;;11.34;75.55;97261.06;5101012;28;20020;-86
2023/03/15 09:49:27;;;;;;;1999.90;999.90;;;;;;;11.78;72.88;97261.69;5099030;28;19918;-87
2023/03/15 09:52:14;;;;;;;1999.90;999.90;;;;;;;12.05;73.72;97268.00;5097907;28;20035;-85
2023/03/15 09:54:43;;;;;;;1999.90;999.90;;;;;;;12.15;73.19;97271.22;5096887;28;20035;-87
2023/03/15 09:57:20;;;;;;;1999.90;999.90;;;;;;;12.28;75.15;97267.53;5097570;28;20060;-83
2023/03/15 09:59:51;;;;;;;1999.90;999.90;;;;;;;12.10;75.98;97265.91;5098015;28;20037;-85
2023/03/15 10:02:30;;;;;;;1999.90;999.90;;;;;;;11.96;72.92;97278.16;5097462;28;20039;-86
2023/03/15 10:05:15;;;;;;;1999.90;999.90;;;;;;;11.71;73.87;97268.78;5096450;28;20024;-84
2023/03/15 10:07:40;;;;;;;1999.90;999.90;;;;;;;11.06;76.37;97274.94;5097005;28;20024;-87
2023/03/15 10:10:15;;;;;;;1999.90;999.90;;;;;;;11.50;75.33;97270.44;5097262;28;20078;-81
2023/03/15 10:12:45;;;;;;;1999.90;999.90;;;;;;;11.76;73.28;97269.44;5097204;28;20089;-85
2023/03/15 10:15:22;;;;;;;1999.90;999.90;;;;;;;12.01;71.44;97269.78;5097141;28;20048;-89
2023/03/15 10:17:57;;;;;;;1999.90;999.90;;;;;;;12.21;71.42;97280.13;5097784;28;20036;-88
2023/03/15 10:20:26;;;;;;;1999.90;999.90;;;;;;;12.84;68.98;97280.19;5097735;28;20175;-89
2023/03/15 10:23:10;;;;;;;1999.90;999.90;;;;;;;13.30;67.04;97286.88;5097867;28;20028;-90
2023/03/15 10:25:36;;;;;;;1999.90;999.90;;;;;;;13.28;64.81;97286.41;5099057;28;20024;-84
2023/03/15 10:28:14;;;;;;;1999.90;999.90;;;;;;;13.71;63.51;97278.78;5098137;28;20030;-85
2023/03/15 10:30:46;;;;;;;1999.90;999.90;;;;;;;13.95;62.72;97276.19;5099444;28;20050;-89
2023/03/15 10:33:18;;;;;;;1999.90;999.90;;;;;;;13.77;61.06;97280.19;5098985;28;20104;-87
2023/03/15 10:35:43;;;;;;;1999.90;999.90;;;;;;;13.90;61.01;97281.09;5095116;28;20055;-80
2023/03/15 10:38:27;;;;;;;1999.90;999.90;;;;;;;14.04;60.35;97276.13;5096914;28;20039;-89
2023/03/15 10:40:56;;;;;;;1999.90;999.90;;;;;;;14.27;60.81;97282.09;5096831;28;20036;-84
2023/03/15 10:43:22;;;;;;;1999.90;999.90;;;;;;;14.30;60.11;97285.00;5098075;28;20032;-88
2023/03/15 10:46:11;;;;;;;1999.90;999.90;;;;;;;14.33;60.86;97286.28;5097893;28;20027;-87
2023/03/15 10:48:40;;;;;;;1999.90;999.90;;;;;;;14.26;57.45;97288.75;5098858;28;20024;-83
2023/03/15 10:51:23;;;;;;;1999.90;999.90;;;;;;;14.08;56.99;97292.75;5099708;28;20396;-85
2023/03/15 10:54:18;;;;;;;1999.90;999.90;;;;;;;14.12;57.36;97296.47;5097687;28;20043;-82
2023/03/15 10:56:56;;;;;;;1999.90;999.90;;;;;;;14.50;55.52;97296.38;5097706;28;20020;-88
2023/03/15 10:59:24;;;;;;;1999.90;999.90;;;;;;;14.36;50.56;97300.19;5098544;28;20024;-87